Time;durP1;ratioP1;P1;durP2;ratioP2;P2;SDS_P1;SDS_P2;PMS_P1;PMS_P2;Temp;Humidity;BMP_temperature;BMP_pressure;BME280_temperature;BME280_humidity;BME280_pressure;Samples;Min_cycle;Max_cycle;Signal;HPM_P1;HPM_P2
2023/07/30 00:01:56;;;;;;;3.15;1.60;;;17.90;99.90;;;;;;5006225;28;20037;-32
2023/07/30 00:04:22;;;;;;;2.15;1.95;;;17.80;99.90;;;;;;4990934;28;20462;-33
2023/07/30 00:06:47;;;;;;;1.83;1.73;;;17.80;99.90;;;;;;5001182;28;20045;-31
2023/07/30 00:09:13;;;;;;;3.05;2.00;;;17.80;99.90;;;;;;5005466;28;20033;-31
2023/07/30 00:11:38;;;;;;;2.20;1.98;;;17.80;99.90;;;;;;5007501;28;20092;-32
2023/07/30 00:14:04;;;;;;;2.88;1.90;;;17.90;99.90;;;;;;5005748;28;20026;-34
2023/07/30 00:16:30;;;;;;;1.98;1.80;;;17.90;99.90;;;;;;5004996;28;20501;-33
2023/07/30 00:18:56;;;;;;;2.55;2.15;;;17.80;99.90;;;;;;4989602;28;20068;-32
2023/07/30 00:21:22;;;;;;;2.53;1.90;;;17.80;99.90;;;;;;4990037;28;20112;-32
2023/07/30 00:23:47;;;;;;;1.90;1.80;;;17.80;99.90;;;;;;5000216;28;20101;-42
2023/07/30 00:26:13;;;;;;;2.28;1.90;;;17.70;99.90;;;;;;5004219;28;20776;-42
2023/07/30 00:28:39;;;;;;;3.65;1.88;;;17.70;99.90;;;;;;5002069;28;20029;-38
2023/07/30 00:31:04;;;;;;;2.45;1.80;;;17.70;99.90;;;;;;5000268;28;20148;-41
2023/07/30 00:33:30;;;;;;;3.10;2.22;;;17.70;99.90;;;;;;5003375;28;20042;-37
2023/07/30 00:35:55;;;;;;;4.57;1.83;;;17.70;99.90;;;;;;5005438;28;20490;-41
2023/07/30 00:38:21;;;;;;;2.63;1.83;;;17.80;99.90;;;;;;4999666;28;20719;-42
2023/07/30 00:40:47;;;;;;;3.25;1.90;;;17.70;99.90;;;;;;5002661;28;20411;-42
2023/07/30 00:43:12;;;;;;;3.60;1.70;;;17.70;99.90;;;;;;5005084;28;20022;-41
2023/07/30 00:45:42;;;;;;;3.75;2.03;;;17.70;99.90;;;;;;5005341;28;20057;-42
2023/07/30 00:48:08;;;;;;;2.08;1.65;;;17.70;99.90;;;;;;5006093;28;20041;-40
2023/07/30 00:50:34;;;;;;;4.80;2.40;;;17.70;99.90;;;;;;5004883;28;20034;-41
2023/07/30 00:53:00;;;;;;;2.63;2.03;;;17.60;99.90;;;;;;5005950;28;20095;-42
2023/07/30 00:55:26;;;;;;;2.13;1.90;;;17.60;99.90;;;;;;5004541;28;20060;-41
2023/07/30 00:57:51;;;;;;;4.05;2.08;;;17.60;99.90;;;;;;5007183;28;20029;-42
2023/07/30 01:00:17;;;;;;;2.25;1.92;;;17.60;99.90;;;;;;5004743;28;20398;-42
2023/07/30 01:02:44;;;;;;;2.80;1.80;;;17.70;99.90;;;;;;4986084;28;20035;-39
2023/07/30 01:05:09;;;;;;;3.00;2.20;;;17.70;99.90;;;;;;4999958;28;20034;-41
2023/07/30 01:07:35;;;;;;;2.00;1.80;;;17.70;99.90;;;;;;4998514;28;20044;-40
2023/07/30 01:10:02;;;;;;;2.42;1.70;;;17.60;99.90;;;;;;4988250;28;20029;-42
2023/07/30 01:12:30;;;;;;;3.73;2.03;;;17.60;99.90;;;;;;5000986;28;20030;-43
2023/07/30 01:14:56;;;;;;;3.22;1.70;;;17.60;99.90;;;;;;4999710;28;20026;-42
2023/07/30 01:17:23;;;;;;;2.50;1.90;;;17.60;99.90;;;;;;5001555;28;20041;-42
2023/07/30 01:19:54;;;;;;;2.20;2.00;;;17.60;99.90;;;;;;4996420;28;20038;-41
2023/07/30 01:22:20;;;;;;;2.38;2.00;;;17.60;99.90;;;;;;5002506;28;20165;-41
2023/07/30 01:24:46;;;;;;;3.10;1.60;;;17.60;99.90;;;;;;4999869;28;20018;-33
2023/07/30 01:27:28;;;;;;;2.03;1.80;;;17.50;99.90;;;;;;5005087;28;20391;-33
2023/07/30 01:30:15;;;;;;;2.22;1.85;;;17.50;99.90;;;;;;4985247;28;20766;-33
2023/07/30 01:32:41;;;;;;;2.40;1.70;;;17.50;99.90;;;;;;4999047;28;20038;-34
2023/07/30 01:35:08;;;;;;;2.17;1.98;;;17.50;99.90;;;;;;5005818;28;20537;-32
2023/07/30 01:37:34;;;;;;;2.20;1.80;;;17.50;99.90;;;;;;5002046;28;20075;-32
2023/07/30 01:40:00;;;;;;;2.45;2.00;;;17.50;99.90;;;;;;5007651;28;20033;-33
2023/07/30 01:42:30;;;;;;;3.53;2.03;;;17.50;99.90;;;;;;4998553;28;20398;-32
2023/07/30 01:44:56;;;;;;;2.80;1.90;;;17.50;99.90;;;;;;5003775;28;20105;-32
2023/07/30 01:47:22;;;;;;;1.90;1.70;;;17.50;99.90;;;;;;4998014;28;20032;-32
2023/07/30 01:49:48;;;;;;;3.20;1.70;;;17.50;99.90;;;;;;5003014;28;20037;-31
2023/07/30 01:52:13;;;;;;;2.10;1.90;;;17.50;99.90;;;;;;5001951;28;20032;-32
2023/07/30 01:54:39;;;;;;;3.55;1.95;;;17.50;99.90;;;;;;5003000;28;20092;-32
2023/07/30 01:57:04;;;;;;;4.93;2.08;;;17.50;99.90;;;;;;5003921;28;20026;-32
2023/07/30 01:59:30;;;;;;;3.30;2.20;;;17.50;99.90;;;;;;4997739;28;20045;-31
2023/07/30 02:01:56;;;;;;;2.67;2.00;;;17.40;99.90;;;;;;5007329;28;20120;-31
2023/07/30 02:04:21;;;;;;;2.33;1.88;;;17.40;99.90;;;;;;4999255;28;20058;-32
2023/07/30 02:06:47;;;;;;;2.00;1.83;;;17.50;99.90;;;;;;5009234;28;20057;-30
2023/07/30 02:09:12;;;;;;;2.15;1.95;;;17.40;99.90;;;;;;5003396;28;20030;-33
2023/07/30 02:11:38;;;;;;;2.08;1.90;;;17.50;99.90;;;;;;5005455;28;20022;-31
2023/07/30 02:14:03;;;;;;;2.88;2.10;;;17.50;99.90;;;;;;5006247;28;20054;-31
2023/07/30 02:16:29;;;;;;;2.17;1.98;;;17.50;99.90;;;;;;4998515;28;20857;-33
2023/07/30 02:18:54;;;;;;;4.65;2.38;;;17.50;99.90;;;;;;4990835;28;20386;-34
2023/07/30 02:21:20;;;;;;;2.08;1.92;;;17.50;99.90;;;;;;5007334;28;20109;-31
2023/07/30 02:23:46;;;;;;;3.80;1.80;;;17.40;99.90;;;;;;5003581;28;20060;-31
2023/07/30 02:26:11;;;;;;;3.08;2.08;;;17.40;99.90;;;;;;5005695;28;20033;-31
2023/07/30 02:28:37;;;;;;;3.92;2.13;;;17.40;99.90;;;;;;5003751;28;20474;-31
2023/07/30 02:31:02;;;;;;;4.03;2.17;;;17.40;99.90;;;;;;5003137;28;20038;-31
2023/07/30 02:33:28;;;;;;;3.13;2.10;;;17.40;99.90;;;;;;5003672;28;20042;-32
2023/07/30 02:35:54;;;;;;;3.05;1.92;;;17.40;99.90;;;;;;4999080;28;20479;-40
2023/07/30 02:38:19;;;;;;;3.67;2.28;;;17.30;99.90;;;;;;4999010;28;20803;-40
2023/07/30 02:40:45;;;;;;;3.08;2.08;;;17.40;99.90;;;;;;4999327;28;20112;-38
2023/07/30 02:43:10;;;;;;;2.75;2.08;;;17.40;99.90;;;;;;5002228;28;20105;-40
2023/07/30 02:45:37;;;;;;;2.67;2.22;;;17.30;99.90;;;;;;5016499;28;20034;-31
2023/07/30 02:48:02;;;;;;;3.08;2.15;;;17.30;99.90;;;;;;5001474;28;20087;-32
2023/07/30 02:50:28;;;;;;;2.78;2.38;;;17.30;99.90;;;;;;5000295;28;20495;-34
2023/07/30 02:52:54;;;;;;;3.60;2.13;;;17.40;99.90;;;;;;5005000;28;20033;-32
2023/07/30 02:55:19;;;;;;;3.42;2.05;;;17.30;99.90;;;;;;4999845;28;20835;-34
2023/07/30 02:57:45;;;;;;;3.08;2.22;;;17.40;99.90;;;;;;5002897;28;20491;-31
2023/07/30 03:00:11;;;;;;;3.58;2.15;;;17.40;99.90;;;;;;5002872;28;20032;-34
2023/07/30 03:02:36;;;;;;;2.92;2.10;;;17.30;99.90;;;;;;5007451;28;20495;-32
2023/07/30 03:05:02;;;;;;;2.80;1.95;;;17.20;99.90;;;;;;4998582;28;20034;-33
2023/07/30 03:07:28;;;;;;;3.38;1.88;;;17.20;99.90;;;;;;4995655;28;20030;-32
2023/07/30 03:09:53;;;;;;;2.67;2.10;;;17.20;99.90;;;;;;5000111;28;20032;-32
2023/07/30 03:12:19;;;;;;;3.00;2.05;;;17.20;99.90;;;;;;5003087;28;20034;-31
2023/07/30 03:14:44;;;;;;;3.13;2.15;;;17.20;99.90;;;;;;5005654;28;20030;-31
2023/07/30 03:17:10;;;;;;;2.50;2.15;;;17.20;99.90;;;;;;5003600;28;20030;-32
2023/07/30 03:19:36;;;;;;;2.65;1.95;;;17.10;99.90;;;;;;5003169;28;20124;-33
2023/07/30 03:22:01;;;;;;;2.45;2.13;;;17.10;99.90;;;;;;5007058;28;20125;-31
2023/07/30 03:24:27;;;;;;;3.70;2.17;;;17.10;99.90;;;;;;5001820;28;20483;-32
2023/07/30 03:26:52;;;;;;;2.83;2.13;;;17.00;99.90;;;;;;4998616;28;20696;-33
2023/07/30 03:29:18;;;;;;;3.50;2.03;;;17.00;99.90;;;;;;5003437;28;20034;-31
2023/07/30 03:31:43;;;;;;;2.38;1.88;;;16.90;99.90;;;;;;5002251;28;20092;-32
2023/07/30 03:34:09;;;;;;;3.53;2.25;;;16.90;99.90;;;;;;5002020;28;20049;-31
2023/07/30 03:36:34;;;;;;;4.70;2.25;;;16.90;99.90;;;;;;5004102;28;20026;-32
2023/07/30 03:39:00;;;;;;;2.60;1.80;;;16.80;99.90;;;;;;5002541;28;20046;-31
2023/07/30 03:41:26;;;;;;;2.30;2.00;;;16.70;99.90;;;;;;5005766;28;20034;-32
2023/07/30 03:43:51;;;;;;;2.17;1.98;;;16.50;99.90;;;;;;4993812;28;20056;-32
2023/07/30 03:46:17;;;;;;;2.40;1.80;;;16.60;99.90;;;;;;5003204;28;20037;-32
2023/07/30 03:48:43;;;;;;;3.28;1.80;;;16.40;99.90;;;;;;5003489;28;20033;-32
2023/07/30 03:51:08;;;;;;;2.65;2.30;;;16.40;99.90;;;;;;5002275;28;20700;-34
2023/07/30 03:53:34;;;;;;;1.80;1.60;;;16.40;99.90;;;;;;5020693;28;20491;-32
2023/07/30 03:56:00;;;;;;;2.78;2.00;;;16.30;99.90;;;;;;5006407;28;20105;-32
2023/07/30 03:58:25;;;;;;;2.30;2.10;;;16.30;99.90;;;;;;4993490;28;22247;-34
2023/07/30 04:00:51;;;;;;;3.45;2.40;;;16.30;99.90;;;;;;4988124;28;20096;-36
2023/07/30 04:03:16;;;;;;;2.40;2.15;;;16.30;99.90;;;;;;4990505;28;20021;-33
2023/07/30 04:05:42;;;;;;;2.78;2.38;;;16.30;99.90;;;;;;4991353;28;20065;-33
2023/07/30 04:08:08;;;;;;;3.90;2.42;;;16.30;99.90;;;;;;4991339;28;20395;-33
2023/07/30 04:10:33;;;;;;;3.30;2.03;;;16.30;99.90;;;;;;4989075;28;20030;-33
2023/07/30 04:12:59;;;;;;;3.40;2.30;;;16.30;99.90;;;;;;4990970;28;20025;-35
2023/07/30 04:15:25;;;;;;;3.47;1.92;;;16.30;99.90;;;;;;4991804;28;20096;-35
2023/07/30 04:17:50;;;;;;;4.03;2.10;;;16.30;99.90;;;;;;4995037;28;20073;-33
2023/07/30 04:20:17;;;;;;;2.83;2.30;;;16.30;99.90;;;;;;4990462;28;20037;-34
2023/07/30 04:22:43;;;;;;;3.20;2.50;;;16.40;99.90;;;;;;4992218;28;20125;-33
2023/07/30 04:25:10;;;;;;;5.03;3.08;;;16.40;99.90;;;;;;4990437;28;20042;-36
2023/07/30 04:27:36;;;;;;;3.42;2.47;;;16.30;99.90;;;;;;5004467;28;20039;-35
2023/07/30 04:30:02;;;;;;;4.47;2.40;;;16.40;99.90;;;;;;4996477;28;20054;-33
2023/07/30 04:32:28;;;;;;;2.80;2.45;;;16.30;99.90;;;;;;4990053;28;20092;-33
2023/07/30 04:34:53;;;;;;;5.45;2.22;;;16.30;99.90;;;;;;5002061;28;20026;-34
2023/07/30 04:37:19;;;;;;;3.50;2.40;;;16.40;99.90;;;;;;5001186;28;20030;-33
2023/07/30 04:39:44;;;;;;;5.25;2.35;;;16.40;99.90;;;;;;5006272;28;20128;-34
2023/07/30 04:42:10;;;;;;;3.55;2.78;;;16.40;99.90;;;;;;5003269;28;20493;-35
2023/07/30 04:44:35;;;;;;;3.47;2.53;;;16.50;99.90;;;;;;4998442;28;20697;-32
2023/07/30 04:47:01;;;;;;;3.22;2.63;;;16.60;99.90;;;;;;5002404;28;20037;-33
2023/07/30 04:49:26;;;;;;;2.78;2.42;;;16.70;99.90;;;;;;5003674;28;20046;-32
2023/07/30 04:51:52;;;;;;;2.75;2.55;;;16.80;99.90;;;;;;4998435;28;20033;-32
2023/07/30 04:54:17;;;;;;;2.78;2.40;;;16.90;99.90;;;;;;5003098;28;20037;-32
2023/07/30 04:56:43;;;;;;;2.85;2.38;;;17.00;99.90;;;;;;5003227;28;20154;-32
2023/07/30 04:59:09;;;;;;;3.70;2.50;;;17.00;99.90;;;;;;5002940;28;20041;-33
2023/07/30 05:01:34;;;;;;;3.40;2.30;;;17.10;99.90;;;;;;5002358;28;20033;-34
2023/07/30 05:04:00;;;;;;;3.08;2.40;;;17.10;99.90;;;;;;5002299;28;20026;-31
2023/07/30 05:06:25;;;;;;;2.38;1.98;;;17.20;99.90;;;;;;5004408;28;20112;-36
2023/07/30 05:08:51;;;;;;;3.58;2.30;;;17.20;99.90;;;;;;5006094;28;20364;-30
2023/07/30 05:11:17;;;;;;;2.78;2.20;;;17.30;99.90;;;;;;5003697;28;20175;-31
2023/07/30 05:13:42;;;;;;;2.60;2.33;;;17.40;99.90;;;;;;5022079;28;20131;-31
2023/07/30 05:16:08;;;;;;;3.75;2.03;;;17.50;99.90;;;;;;5007788;28;21208;-31
2023/07/30 05:18:34;;;;;;;2.78;2.20;;;17.50;99.90;;;;;;5003668;28;20471;-30
2023/07/30 05:20:59;;;;;;;3.63;2.42;;;17.60;99.90;;;;;;5009932;28;20033;-31
2023/07/30 05:23:25;;;;;;;3.00;2.30;;;17.60;99.90;;;;;;5004614;28;20037;-30
2023/07/30 05:25:51;;;;;;;2.22;2.03;;;17.70;99.90;;;;;;5007940;28;20038;-31
2023/07/30 05:28:16;;;;;;;2.28;1.92;;;17.80;99.90;;;;;;5004689;28;20197;-31
2023/07/30 05:30:42;;;;;;;2.58;2.03;;;17.80;99.90;;;;;;4999693;28;20037;-33
2023/07/30 05:33:07;;;;;;;3.92;2.10;;;17.90;99.90;;;;;;5004286;28;20031;-31
2023/07/30 05:35:33;;;;;;;2.40;2.17;;;18.00;99.90;;;;;;5006452;28;20065;-33
2023/07/30 05:37:59;;;;;;;2.40;2.20;;;17.90;99.90;;;;;;4998897;28;20037;-31
2023/07/30 05:40:24;;;;;;;2.92;2.20;;;18.10;99.90;;;;;;5006297;28;20113;-31
2023/07/30 05:42:50;;;;;;;3.45;2.25;;;18.20;99.90;;;;;;5005517;28;20237;-31
2023/07/30 05:45:16;;;;;;;2.90;2.20;;;18.20;99.90;;;;;;5005831;28;20068;-35
2023/07/30 05:47:41;;;;;;;3.42;2.47;;;18.30;99.90;;;;;;5004251;28;20081;-31
2023/07/30 05:50:08;;;;;;;3.90;2.25;;;18.40;99.90;;;;;;5004996;28;20442;-30
2023/07/30 05:52:33;;;;;;;2.28;2.08;;;18.40;99.90;;;;;;4999609;28;20131;-31
2023/07/30 05:54:59;;;;;;;2.92;2.20;;;18.50;99.90;;;;;;5004701;28;20109;-31
2023/07/30 05:57:25;;;;;;;4.30;2.53;;;18.50;99.90;;;;;;5000352;28;20026;-30
2023/07/30 05:59:51;;;;;;;2.53;2.15;;;18.60;99.90;;;;;;5005744;28;20034;-31
2023/07/30 06:02:17;;;;;;;2.83;2.25;;;18.70;99.90;;;;;;5001207;28;20049;-31
2023/07/30 06:04:42;;;;;;;2.80;2.25;;;19.00;99.90;;;;;;5005627;28;20041;-38
2023/07/30 06:07:08;;;;;;;2.30;2.10;;;19.00;99.90;;;;;;4999062;28;20034;-39
2023/07/30 06:09:34;;;;;;;2.75;1.95;;;19.10;99.90;;;;;;5001375;28;20034;-39
2023/07/30 06:12:00;;;;;;;2.78;2.10;;;19.20;99.90;;;;;;5004826;28;20154;-36
2023/07/30 06:14:26;;;;;;;2.78;2.03;;;19.40;99.90;;;;;;5000628;28;20032;-31
2023/07/30 06:16:53;;;;;;;2.33;2.13;;;19.40;99.90;;;;;;4999304;28;20483;-32
2023/07/30 06:19:18;;;;;;;5.32;2.42;;;19.40;99.90;;;;;;5000010;28;20435;-32
2023/07/30 06:21:44;;;;;;;3.45;2.10;;;19.40;99.90;;;;;;5001402;28;20030;-31
2023/07/30 06:24:10;;;;;;;3.10;2.20;;;19.40;99.90;;;;;;5003586;28;20033;-32
2023/07/30 06:26:35;;;;;;;3.38;1.90;;;19.50;99.90;;;;;;5003642;28;20029;-32
2023/07/30 06:29:01;;;;;;;2.25;1.85;;;19.50;99.90;;;;;;4999823;28;20072;-31
2023/07/30 06:31:27;;;;;;;2.33;2.10;;;19.50;99.90;;;;;;4984866;28;20050;-31
2023/07/30 06:33:52;;;;;;;2.50;1.80;;;19.60;99.90;;;;;;5001617;28;20026;-31
2023/07/30 06:36:18;;;;;;;3.22;2.08;;;19.80;99.90;;;;;;5003407;28;21192;-34
2023/07/30 06:38:43;;;;;;;2.50;2.17;;;20.00;99.90;;;;;;5001625;28;20050;-32
2023/07/30 06:41:09;;;;;;;2.35;2.00;;;20.10;99.90;;;;;;4999071;28;20080;-33
2023/07/30 06:43:35;;;;;;;2.42;1.95;;;20.20;99.90;;;;;;5002314;28;20026;-32
2023/07/30 06:46:00;;;;;;;2.08;1.77;;;20.30;99.90;;;;;;5000565;28;20094;-31
2023/07/30 06:48:26;;;;;;;2.17;1.98;;;20.50;99.90;;;;;;5004091;28;20026;-32
2023/07/30 06:50:51;;;;;;;2.42;2.10;;;20.60;99.90;;;;;;5001160;28;20046;-30
2023/07/30 06:53:17;;;;;;;2.75;2.00;;;20.50;99.90;;;;;;4987911;28;20112;-34
2023/07/30 06:55:43;;;;;;;2.45;1.85;;;20.50;99.90;;;;;;4999266;28;20035;-34
2023/07/30 06:58:09;;;;;;;2.47;2.10;;;20.60;99.90;;;;;;4998542;28;20430;-32
2023/07/30 07:00:35;;;;;;;2.95;2.08;;;20.50;99.90;;;;;;4995928;28;20045;-31
2023/07/30 07:03:00;;;;;;;2.22;1.70;;;20.50;99.90;;;;;;5001007;28;20034;-36
2023/07/30 07:05:26;;;;;;;3.40;1.98;;;20.50;99.90;;;;;;5001625;28;20034;-33
2023/07/30 07:07:52;;;;;;;1.70;1.60;;;20.60;99.90;;;;;;4997830;28;20034;-33
2023/07/30 07:10:17;;;;;;;2.53;1.70;;;20.70;99.90;;;;;;4998845;28;20030;-32
2023/07/30 07:12:43;;;;;;;2.45;2.10;;;20.80;99.90;;;;;;4995631;28;20506;-30
2023/07/30 07:15:09;;;;;;;2.88;1.95;;;20.80;99.90;;;;;;4999696;28;20030;-32
2023/07/30 07:17:35;;;;;;;3.33;1.73;;;20.90;99.90;;;;;;4999328;28;20030;-31
2023/07/30 07:20:01;;;;;;;2.10;1.90;;;20.90;99.90;;;;;;4998237;28;20037;-31
2023/07/30 07:22:26;;;;;;;1.60;1.50;;;21.00;99.90;;;;;;5001721;28;20029;-30
2023/07/30 07:24:53;;;;;;;1.90;1.60;;;21.20;99.90;;;;;;4985484;28;20156;-39
2023/07/30 07:27:19;;;;;;;2.28;1.73;;;21.20;99.90;;;;;;5004429;28;20169;-39
2023/07/30 07:29:44;;;;;;;2.42;1.65;;;21.30;99.90;;;;;;5001012;28;20116;-38
2023/07/30 07:32:10;;;;;;;1.75;1.60;;;21.40;99.90;;;;;;4996498;28;20030;-39
2023/07/30 07:34:36;;;;;;;2.47;1.85;;;21.30;99.90;;;;;;5001630;28;20139;-40
2023/07/30 07:37:02;;;;;;;2.58;1.95;;;21.20;99.90;;;;;;5003209;28;20057;-35
2023/07/30 07:39:28;;;;;;;3.33;1.75;;;21.40;99.90;;;;;;5001788;28;20069;-40
2023/07/30 07:41:55;;;;;;;3.20;1.73;;;21.60;99.90;;;;;;5006063;28;20788;-39
2023/07/30 07:44:21;;;;;;;2.40;1.80;;;21.60;99.90;;;;;;5001581;28;20383;-40
2023/07/30 07:46:47;;;;;;;4.70;1.90;;;21.70;99.90;;;;;;5002913;28;20022;-39
2023/07/30 07:49:12;;;;;;;1.75;1.65;;;22.10;99.90;;;;;;5001782;28;20733;-39
2023/07/30 07:51:38;;;;;;;2.00;1.80;;;22.20;99.90;;;;;;5002574;28;20064;-38
2023/07/30 07:54:04;;;;;;;2.05;1.70;;;22.10;99.90;;;;;;5001313;28;20396;-39
2023/07/30 07:56:31;;;;;;;1.65;1.55;;;22.10;99.90;;;;;;5005648;28;20481;-40
2023/07/30 07:58:57;;;;;;;3.00;2.30;;;22.00;99.90;;;;;;5005105;28;20034;-40
2023/07/30 08:01:22;;;;;;;2.05;1.73;;;22.10;99.90;;;;;;4996434;28;20537;-40
2023/07/30 08:03:48;;;;;;;1.90;1.70;;;22.00;99.90;;;;;;4999302;28;20026;-38
2023/07/30 08:06:13;;;;;;;2.00;1.70;;;21.80;99.90;;;;;;4994486;28;20100;-39
2023/07/30 08:08:39;;;;;;;3.05;1.67;;;21.80;99.90;;;;;;5002808;28;20106;-40
2023/07/30 08:11:08;;;;;;;1.77;1.67;;;21.70;99.90;;;;;;4999791;28;20394;-40
2023/07/30 08:13:35;;;;;;;1.70;1.60;;;21.60;99.90;;;;;;5003954;28;20022;-39
2023/07/30 08:16:01;;;;;;;2.15;1.70;;;21.60;99.90;;;;;;5000546;28;20030;-40
2023/07/30 08:18:27;;;;;;;1.70;1.60;;;21.50;99.90;;;;;;5003884;28;20030;-40
2023/07/30 08:20:53;;;;;;;1.70;1.60;;;21.40;99.90;;;;;;5003086;28;20688;-40
2023/07/30 08:23:19;;;;;;;3.70;1.67;;;21.50;99.90;;;;;;5002328;28;20068;-40
2023/07/30 08:25:44;;;;;;;2.05;1.50;;;21.60;99.90;;;;;;5004360;28;20036;-40
2023/07/30 08:28:10;;;;;;;1.45;1.35;;;21.60;99.90;;;;;;5004530;28;20092;-39
2023/07/30 08:30:35;;;;;;;1.98;1.83;;;21.80;99.90;;;;;;5004413;28;20026;-37
2023/07/30 08:33:01;;;;;;;1.65;1.30;;;21.90;99.90;;;;;;5004466;28;20486;-42
2023/07/30 08:35:26;;;;;;;1.58;1.48;;;22.10;99.90;;;;;;5002311;28;21249;-41
2023/07/30 08:37:52;;;;;;;1.73;1.40;;;22.00;99.90;;;;;;5003263;28;20037;-37
2023/07/30 08:40:20;;;;;;;1.92;1.40;;;22.00;99.90;;;;;;5002156;28;21087;-37
2023/07/30 08:42:45;;;;;;;1.52;1.42;;;21.70;99.90;;;;;;5000248;28;20034;-40
2023/07/30 08:45:11;;;;;;;1.50;1.40;;;21.60;99.90;;;;;;5001460;28;20037;-40
2023/07/30 08:47:39;;;;;;;119.75;22.33;;;21.70;99.90;;;;;;4975182;28;20123;-40
2023/07/30 08:50:05;;;;;;;25.10;5.22;;;21.80;99.90;;;;;;4999093;28;20387;-40
2023/07/30 08:52:33;;;;;;;2.85;1.98;;;22.10;99.90;;;;;;5003969;28;20031;-41
2023/07/30 08:55:01;;;;;;;1.45;1.30;;;22.20;99.90;;;;;;5001571;28;20114;-40
2023/07/30 08:57:29;;;;;;;2.10;1.60;;;22.40;99.90;;;;;;5003061;28;20073;-41
2023/07/30 09:00:11;;;;;;;2.35;1.38;;;22.70;99.90;;;;;;5003957;28;20133;-39
2023/07/30 09:02:54;;;;;;;1.60;1.50;;;22.90;99.90;;;;;;5002224;28;20157;-41
2023/07/30 09:05:20;;;;;;;1.60;1.50;;;23.20;99.90;;;;;;5001215;28;20478;-41
2023/07/30 09:07:46;;;;;;;2.63;1.60;;;23.10;99.90;;;;;;5004792;28;20041;-41
2023/07/30 09:10:13;;;;;;;2.00;1.40;;;23.00;99.90;;;;;;4995812;28;20113;-41
2023/07/30 09:12:39;;;;;;;2.40;1.63;;;22.90;99.90;;;;;;4988685;28;20030;-39
2023/07/30 09:15:06;;;;;;;2.05;1.58;;;22.90;99.90;;;;;;4998256;28;20395;-41
2023/07/30 09:17:32;;;;;;;1.38;1.27;;;22.80;99.90;;;;;;4999838;28;20033;-41
2023/07/30 09:20:00;;;;;;;1.63;1.45;;;23.00;99.90;;;;;;5001795;28;20034;-40
2023/07/30 09:22:36;;;;;;;1.67;1.48;;;23.10;99.90;;;;;;5003982;28;20491;-40
2023/07/30 09:25:02;;;;;;;1.50;1.40;;;23.20;99.90;;;;;;5000757;28;20033;-40
2023/07/30 09:27:28;;;;;;;1.70;1.52;;;23.00;99.90;;;;;;5000650;28;20033;-41
2023/07/30 09:29:56;;;;;;;1.30;1.20;;;22.80;99.90;;;;;;5006117;28;20038;-41
2023/07/30 09:32:26;;;;;;;1.43;1.33;;;22.90;99.90;;;;;;5001679;28;20040;-41
2023/07/30 09:34:51;;;;;;;1.55;1.45;;;23.10;99.90;;;;;;5000678;28;20277;-31
2023/07/30 09:37:17;;;;;;;2.15;1.38;;;22.90;99.90;;;;;;4988962;28;20025;-30
2023/07/30 09:39:43;;;;;;;1.55;1.40;;;22.60;99.90;;;;;;5002281;28;20164;-34
2023/07/30 09:42:09;;;;;;;1.33;1.23;;;22.70;99.90;;;;;;5000982;28;20040;-32
2023/07/30 09:44:38;;;;;;;1.63;1.20;;;22.40;99.90;;;;;;5002920;28;20038;-34
2023/07/30 09:47:05;;;;;;;1.95;1.45;;;22.40;99.90;;;;;;5004064;28;20035;-31
2023/07/30 09:49:34;;;;;;;2.67;1.58;;;22.50;99.90;;;;;;5003475;28;20042;-30
2023/07/30 09:52:01;;;;;;;2.28;1.40;;;22.50;99.90;;;;;;5003677;28;20067;-31
2023/07/30 09:54:27;;;;;;;2.58;1.70;;;22.40;99.90;;;;;;5003984;28;20030;-30
2023/07/30 09:56:52;;;;;;;1.73;1.42;;;22.40;99.90;;;;;;5002151;28;20033;-30
2023/07/30 09:59:18;;;;;;;1.35;1.25;;;22.60;99.90;;;;;;4997693;28;20026;-29
2023/07/30 10:01:49;;;;;;;1.40;1.30;;;23.00;99.90;;;;;;5001572;28;20451;-31
2023/07/30 10:04:18;;;;;;;1.55;1.25;;;22.90;99.90;;;;;;5004501;28;20030;-30
2023/07/30 10:07:16;;;;;;;1.85;1.30;;;22.80;99.90;;;;;;5008080;23;20178;-79
2023/07/30 10:09:55;;;;;;;1.92;1.10;;;22.90;99.90;;;;;;4973595;28;20046;-81
2023/07/30 10:12:31;;;;;;;1.90;1.60;;;21.90;99.90;;;;;;4994576;28;20037;-78
2023/07/30 10:14:57;;;;;;;1.65;1.55;;;21.00;99.90;;;;;;4995816;28;20050;-80
2023/07/30 10:17:23;;;;;;;2.30;1.40;;;20.60;99.90;;;;;;4998033;28;20038;-79
2023/07/30 10:19:57;;;;;;;2.08;1.90;;;20.40;99.90;;;;;;4982131;28;20560;-79
2023/07/30 10:22:41;;;;;;;2.53;1.58;;;20.10;99.90;;;;;;4995084;28;20591;-80
2023/07/30 10:25:16;;;;;;;2.35;1.30;;;19.90;99.90;;;;;;4998398;28;20026;-80
2023/07/30 10:27:49;;;;;;;3.58;1.40;;;19.80;99.90;;;;;;4982643;28;20065;-81
2023/07/30 10:30:17;;;;;;;1.65;1.15;;;19.80;99.90;;;;;;5009419;28;20179;-79
2023/07/30 10:32:57;;;;;;;;;;;19.50;99.90;;;;;;4995855;28;20046;-81
2023/07/30 10:35:43;;;;;;;1.92;1.40;;;19.70;99.90;;;;;;4983422;28;20013;-81
2023/07/30 10:38:24;;;;;;;1.30;0.95;;;20.00;99.90;;;;;;4996387;28;20028;-82
2023/07/30 10:41:10;;;;;;;1.50;1.15;;;20.50;99.90;;;;;;4996656;28;20038;-83
2023/07/30 10:43:49;;;;;;;1.50;1.40;;;20.80;99.90;;;;;;4997781;28;20116;-84
2023/07/30 10:46:17;;;;;;;2.35;1.27;;;20.60;99.90;;;;;;5003298;28;20105;-84
2023/07/30 10:48:45;;;;;;;1.35;1.00;;;20.20;99.90;;;;;;4999901;28;20037;-82
2023/07/30 10:51:16;;;;;;;1.50;1.20;;;20.00;99.90;;;;;;5015805;28;20049;-83
2023/07/30 10:53:45;;;;;;;2.35;1.40;;;19.70;99.90;;;;;;4982644;28;20030;-84
2023/07/30 10:56:13;;;;;;;1.50;1.17;;;19.70;99.90;;;;;;5004716;28;20026;-83
2023/07/30 10:58:39;;;;;;;1.17;1.08;;;19.40;99.90;;;;;;5001018;28;20018;-83
2023/07/30 11:01:09;;;;;;;2.50;1.20;;;19.50;99.90;;;;;;4979257;28;20073;-83
2023/07/30 11:03:58;;;;;;;1.98;1.30;;;19.60;99.90;;;;;;5002919;28;20039;-83
2023/07/30 11:06:27;;;;;;;1.50;1.40;;;19.60;99.90;;;;;;4980164;28;20097;-83
2023/07/30 11:08:53;;;;;;;1.38;1.27;;;19.80;99.90;;;;;;4998002;28;20034;-83
2023/07/30 11:11:19;;;;;;;2.25;1.35;;;19.90;99.90;;;;;;4992673;28;20054;-82
2023/07/30 11:13:47;;;;;;;1.75;1.60;;;20.20;99.90;;;;;;4999045;28;20034;-79
2023/07/30 11:16:13;;;;;;;1.90;1.30;;;20.60;99.90;;;;;;4994622;28;20026;-78
2023/07/30 11:18:41;;;;;;;1.65;1.30;;;20.60;99.90;;;;;;4990533;28;20039;-78
2023/07/30 11:21:14;;;;;;;1.90;1.20;;;20.70;99.90;;;;;;5000658;28;20144;-79
2023/07/30 11:23:42;;;;;;;1.40;1.30;;;21.10;99.90;;;;;;4981084;28;20058;-82
2023/07/30 11:26:09;;;;;;;1.40;1.30;;;21.30;99.90;;;;;;5005289;28;20030;-81
2023/07/30 11:28:37;;;;;;;1.30;1.20;;;21.30;99.90;;;;;;5000376;28;20034;-83
2023/07/30 11:31:12;;;;;;;1.40;1.30;;;21.20;99.90;;;;;;4997810;28;20074;-84
2023/07/30 11:33:43;;;;;;;1.88;1.52;;;21.00;99.90;;;;;;5002207;28;20032;-80
2023/07/30 11:36:19;;;;;;;1.77;1.65;;;20.80;99.90;;;;;;5006670;28;20078;-80
2023/07/30 11:38:55;;;;;;;29.58;20.75;;;20.70;99.90;;;;;;5005180;28;20041;-80
2023/07/30 11:41:23;;;;;;;3.47;2.65;;;20.60;99.90;;;;;;4974243;28;20031;-81
2023/07/30 11:43:48;;;;;;;;;;;20.60;99.90;;;;;;5006619;28;20069;-81
2023/07/30 11:46:22;;;;;;;2.53;1.90;;;20.80;99.90;;;;;;4994136;28;19969;-81
2023/07/30 11:48:54;;;;;;;1.60;1.50;;;20.90;99.90;;;;;;5002078;28;20034;-80
2023/07/30 11:51:27;;;;;;;12.82;4.78;;;21.10;99.90;;;;;;5002168;28;20814;-81
2023/07/30 11:54:17;;;;;;;3.17;2.30;;;21.40;99.90;;;;;;4986735;28;20030;-81
2023/07/30 11:56:46;;;;;;;4.20;2.05;;;21.80;99.90;;;;;;4981623;28;20031;-81
2023/07/30 11:59:15;;;;;;;1.92;1.50;;;21.90;99.90;;;;;;5002721;28;20135;-81
2023/07/30 12:01:54;;;;;;;2.55;1.67;;;22.10;99.90;;;;;;5003238;28;20042;-80
2023/07/30 12:04:47;;;;;;;1.70;1.25;;;22.00;99.90;;;;;;5015129;28;20011;-79
2023/07/30 12:07:23;;;;;;;2.20;1.50;;;21.90;99.90;;;;;;4997217;28;20057;-79
2023/07/30 12:09:49;;;;;;;1.58;1.20;;;21.40;99.90;;;;;;5009855;28;20049;-78
2023/07/30 12:12:15;;;;;;;1.38;1.27;;;21.10;99.90;;;;;;5011529;28;20053;-79
2023/07/30 12:14:57;;;;;;;2.38;1.50;;;21.00;99.90;;;;;;4978245;28;20030;-79
2023/07/30 12:17:23;;;;;;;1.55;1.42;;;21.00;99.90;;;;;;4984986;28;20109;-79
2023/07/30 12:19:49;;;;;;;1.60;1.50;;;21.00;99.90;;;;;;4987000;28;20117;-80
2023/07/30 12:22:24;;;;;;;2.97;1.58;;;20.80;99.90;;;;;;5003500;28;20038;-81
2023/07/30 12:25:36;;;;;;;1.85;1.40;;;20.60;99.90;;;;;;5010893;28;20026;-84
2023/07/30 12:28:02;;;;;;;2.92;1.45;;;20.00;99.90;;;;;;5006917;28;20046;-85
2023/07/30 12:30:28;;;;;;;3.60;1.50;;;19.60;99.90;;;;;;5007204;28;20034;-84
2023/07/30 12:33:15;;;;;;;2.60;1.90;;;19.50;99.90;;;;;;5013548;28;20037;-84
2023/07/30 12:35:43;;;;;;;2.15;1.83;;;19.70;99.90;;;;;;5005110;28;20038;-85
2023/07/30 12:38:15;;;;;;;2.70;1.65;;;20.00;99.90;;;;;;5010933;28;20027;-85
2023/07/30 12:40:52;;;;;;;3.13;1.70;;;20.20;99.90;;;;;;4996935;28;20057;-83
2023/07/30 12:43:33;;;;;;;1.90;1.50;;;20.60;99.90;;;;;;5006457;28;20027;-84
2023/07/30 12:46:17;;;;;;;1.92;1.60;;;20.70;99.90;;;;;;4990214;28;20294;-85
2023/07/30 12:48:49;;;;;;;1.50;1.40;;;20.70;99.90;;;;;;4996663;28;20022;-83
2023/07/30 12:51:39;;;;;;;2.00;1.60;;;20.70;99.90;;;;;;5009056;28;20043;-86